sensor_id;sensor_type;location;lat;lon;timestamp;P1;durP1;ratioP1;P2;durP2;ratioP2
43086;SDS011;28708;52.224;6.924;2023-02-22T00:01:15;68.60;;;31.17;;
43086;SDS011;28708;52.224;6.924;2023-02-22T00:06:25;64.83;;;29.60;;
43086;SDS011;28708;52.224;6.924;2023-02-22T00:08:51;68.13;;;31.50;;
43086;SDS011;28708;52.224;6.924;2023-02-22T00:11:17;65.37;;;30.10;;
43086;SDS011;28708;52.224;6.924;2023-02-22T00:13:44;62.67;;;30.27;;
43086;SDS011;28708;52.224;6.924;2023-02-22T00:16:15;75.17;;;32.93;;
43086;SDS011;28708;52.224;6.924;2023-02-22T00:18:42;66.30;;;30.87;;
43086;SDS011;28708;52.224;6.924;2023-02-22T00:21:08;72.90;;;32.70;;
43086;SDS011;28708;52.224;6.924;2023-02-22T00:23:36;63.77;;;30.37;;
43086;SDS011;28708;52.224;6.924;2023-02-22T00:26:04;73.03;;;32.80;;
43086;SDS011;28708;52.224;6.924;2023-02-22T00:28:34;70.28;;;32.08;;
43086;SDS011;28708;52.224;6.924;2023-02-22T00:31:01;74.63;;;33.83;;
43086;SDS011;28708;52.224;6.924;2023-02-22T00:33:29;71.27;;;33.13;;
43086;SDS011;28708;52.224;6.924;2023-02-22T00:35:56;76.63;;;34.23;;
43086;SDS011;28708;52.224;6.924;2023-02-22T00:38:22;80.57;;;34.53;;
43086;SDS011;28708;52.224;6.924;2023-02-22T00:40:48;79.23;;;35.67;;
43086;SDS011;28708;52.224;6.924;2023-02-22T00:43:13;73.23;;;33.60;;
43086;SDS011;28708;52.224;6.924;2023-02-22T00:45:40;83.93;;;35.73;;
43086;SDS011;28708;52.224;6.924;2023-02-22T00:48:06;89.93;;;36.77;;
43086;SDS011;28708;52.224;6.924;2023-02-22T00:50:32;82.17;;;35.37;;
43086;SDS011;28708;52.224;6.924;2023-02-22T00:52:59;89.87;;;36.63;;
43086;SDS011;28708;52.224;6.924;2023-02-22T00:55:32;80.93;;;36.40;;
43086;SDS011;28708;52.224;6.924;2023-02-22T00:57:59;86.33;;;37.37;;
43086;SDS011;28708;52.224;6.924;2023-02-22T01:00:37;84.03;;;37.20;;
43086;SDS011;28708;52.224;6.924;2023-02-22T01:03:06;86.60;;;37.07;;
43086;SDS011;28708;52.224;6.924;2023-02-22T01:05:33;97.97;;;39.73;;
43086;SDS011;28708;52.224;6.924;2023-02-22T01:07:59;90.30;;;37.10;;
43086;SDS011;28708;52.224;6.924;2023-02-22T01:10:26;99.17;;;40.80;;
43086;SDS011;28708;52.224;6.924;2023-02-22T01:12:53;96.80;;;40.97;;
43086;SDS011;28708;52.224;6.924;2023-02-22T01:15:20;87.63;;;36.47;;
43086;SDS011;28708;52.224;6.924;2023-02-22T01:17:48;92.73;;;38.90;;
43086;SDS011;28708;52.224;6.924;2023-02-22T01:20:15;84.90;;;38.30;;
43086;SDS011;28708;52.224;6.924;2023-02-22T01:22:43;93.80;;;39.60;;
43086;SDS011;28708;52.224;6.924;2023-02-22T01:25:10;96.63;;;38.97;;
43086;SDS011;28708;52.224;6.924;2023-02-22T01:27:40;89.63;;;37.40;;
43086;SDS011;28708;52.224;6.924;2023-02-22T01:30:06;97.37;;;40.23;;
43086;SDS011;28708;52.224;6.924;2023-02-22T01:32:34;98.53;;;40.87;;
43086;SDS011;28708;52.224;6.924;2023-02-22T01:35:00;105.27;;;42.30;;
43086;SDS011;28708;52.224;6.924;2023-02-22T01:37:29;104.53;;;42.70;;
43086;SDS011;28708;52.224;6.924;2023-02-22T01:39:56;107.03;;;44.70;;
43086;SDS011;28708;52.224;6.924;2023-02-22T01:42:22;106.17;;;41.53;;
43086;SDS011;28708;52.224;6.924;2023-02-22T01:47:52;113.03;;;42.90;;
43086;SDS011;28708;52.224;6.924;2023-02-22T01:50:19;107.87;;;44.13;;
43086;SDS011;28708;52.224;6.924;2023-02-22T01:52:46;117.50;;;46.10;;
43086;SDS011;28708;52.224;6.924;2023-02-22T01:55:14;115.33;;;44.23;;
43086;SDS011;28708;52.224;6.924;2023-02-22T01:57:41;116.83;;;42.70;;
43086;SDS011;28708;52.224;6.924;2023-02-22T02:00:10;118.63;;;45.47;;
43086;SDS011;28708;52.224;6.924;2023-02-22T02:02:40;127.67;;;44.43;;
43086;SDS011;28708;52.224;6.924;2023-02-22T02:05:09;120.93;;;45.70;;
43086;SDS011;28708;52.224;6.924;2023-02-22T02:07:36;113.90;;;44.33;;
43086;SDS011;28708;52.224;6.924;2023-02-22T02:10:07;116.97;;;44.97;;
43086;SDS011;28708;52.224;6.924;2023-02-22T02:12:38;116.47;;;44.23;;
43086;SDS011;28708;52.224;6.924;2023-02-22T02:15:17;115.47;;;43.50;;
43086;SDS011;28708;52.224;6.924;2023-02-22T02:17:48;120.20;;;45.97;;
43086;SDS011;28708;52.224;6.924;2023-02-22T02:21:03;115.47;;;43.57;;
43086;SDS011;28708;52.224;6.924;2023-02-22T02:34:32;113.33;;;42.73;;
43086;SDS011;28708;52.224;6.924;2023-02-22T02:37:20;118.93;;;45.17;;
43086;SDS011;28708;52.224;6.924;2023-02-22T02:39:55;112.03;;;42.27;;
43086;SDS011;28708;52.224;6.924;2023-02-22T02:42:41;113.93;;;43.53;;
43086;SDS011;28708;52.224;6.924;2023-02-22T02:45:17;118.23;;;44.73;;
43086;SDS011;28708;52.224;6.924;2023-02-22T02:47:48;116.60;;;42.97;;
43086;SDS011;28708;52.224;6.924;2023-02-22T02:50:24;118.03;;;43.47;;
43086;SDS011;28708;52.224;6.924;2023-02-22T02:52:56;119.37;;;43.73;;
43086;SDS011;28708;52.224;6.924;2023-02-22T02:55:27;117.20;;;42.83;;
43086;SDS011;28708;52.224;6.924;2023-02-22T02:57:54;118.77;;;43.60;;
43086;SDS011;28708;52.224;6.924;2023-02-22T03:00:21;113.27;;;42.83;;
43086;SDS011;28708;52.224;6.924;2023-02-22T03:05:56;121.28;;;44.30;;
43086;SDS011;28708;52.224;6.924;2023-02-22T03:11:44;123.63;;;44.90;;
43086;SDS011;28708;52.224;6.924;2023-02-22T03:14:25;118.53;;;44.80;;
43086;SDS011;28708;52.224;6.924;2023-02-22T03:17:17;127.97;;;44.97;;
43086;SDS011;28708;52.224;6.924;2023-02-22T03:19:54;117.67;;;44.90;;
43086;SDS011;28708;52.224;6.924;2023-02-22T03:25:39;127.83;;;45.20;;
43086;SDS011;28708;52.224;6.924;2023-02-22T03:28:11;110.27;;;42.60;;
43086;SDS011;28708;52.224;6.924;2023-02-22T03:30:43;116.57;;;43.37;;
43086;SDS011;28708;52.224;6.924;2023-02-22T03:33:16;121.10;;;45.73;;
43086;SDS011;28708;52.224;6.924;2023-02-22T03:35:53;120.67;;;44.23;;
43086;SDS011;28708;52.224;6.924;2023-02-22T03:38:25;121.73;;;43.47;;
43086;SDS011;28708;52.224;6.924;2023-02-22T03:40:54;128.32;;;45.38;;
43086;SDS011;28708;52.224;6.924;2023-02-22T03:43:24;115.28;;;42.15;;
43086;SDS011;28708;52.224;6.924;2023-02-22T03:45:58;111.83;;;43.07;;
43086;SDS011;28708;52.224;6.924;2023-02-22T03:48:38;115.70;;;43.07;;
43086;SDS011;28708;52.224;6.924;2023-02-22T03:51:18;129.10;;;45.43;;
43086;SDS011;28708;52.224;6.924;2023-02-22T03:53:49;116.30;;;42.37;;
43086;SDS011;28708;52.224;6.924;2023-02-22T03:56:19;135.13;;;44.93;;
43086;SDS011;28708;52.224;6.924;2023-02-22T03:58:49;120.20;;;43.67;;
43086;SDS011;28708;52.224;6.924;2023-02-22T04:01:17;120.20;;;44.13;;
43086;SDS011;28708;52.224;6.924;2023-02-22T04:03:44;135.47;;;46.80;;
43086;SDS011;28708;52.224;6.924;2023-02-22T04:06:10;127.30;;;45.63;;
43086;SDS011;28708;52.224;6.924;2023-02-22T04:08:36;125.93;;;45.57;;
43086;SDS011;28708;52.224;6.924;2023-02-22T04:11:02;139.23;;;47.70;;
43086;SDS011;28708;52.224;6.924;2023-02-22T04:13:29;137.20;;;47.50;;
43086;SDS011;28708;52.224;6.924;2023-02-22T04:15:56;142.97;;;48.13;;
43086;SDS011;28708;52.224;6.924;2023-02-22T04:18:22;126.77;;;47.23;;
43086;SDS011;28708;52.224;6.924;2023-02-22T04:20:48;134.37;;;46.10;;
43086;SDS011;28708;52.224;6.924;2023-02-22T04:23:24;132.43;;;48.87;;
43086;SDS011;28708;52.224;6.924;2023-02-22T04:25:51;138.60;;;46.57;;
43086;SDS011;28708;52.224;6.924;2023-02-22T04:28:17;131.60;;;44.93;;
43086;SDS011;28708;52.224;6.924;2023-02-22T04:30:49;128.93;;;45.67;;
43086;SDS011;28708;52.224;6.924;2023-02-22T04:33:17;134.63;;;46.87;;
43086;SDS011;28708;52.224;6.924;2023-02-22T04:35:42;139.73;;;47.73;;
43086;SDS011;28708;52.224;6.924;2023-02-22T04:38:08;142.67;;;50.70;;
43086;SDS011;28708;52.224;6.924;2023-02-22T04:40:34;133.07;;;46.70;;
43086;SDS011;28708;52.224;6.924;2023-02-22T04:42:59;142.83;;;48.37;;
43086;SDS011;28708;52.224;6.924;2023-02-22T04:45:25;134.97;;;47.47;;
43086;SDS011;28708;52.224;6.924;2023-02-22T04:47:51;135.00;;;46.50;;
43086;SDS011;28708;52.224;6.924;2023-02-22T04:50:17;136.40;;;48.27;;
43086;SDS011;28708;52.224;6.924;2023-02-22T04:52:44;140.03;;;48.80;;
43086;SDS011;28708;52.224;6.924;2023-02-22T04:55:10;143.57;;;49.97;;
43086;SDS011;28708;52.224;6.924;2023-02-22T04:57:36;143.53;;;50.03;;
43086;SDS011;28708;52.224;6.924;2023-02-22T05:00:03;141.20;;;50.27;;
43086;SDS011;28708;52.224;6.924;2023-02-22T05:02:30;143.60;;;49.30;;
43086;SDS011;28708;52.224;6.924;2023-02-22T05:04:56;148.33;;;51.17;;
43086;SDS011;28708;52.224;6.924;2023-02-22T05:07:21;151.17;;;49.90;;
43086;SDS011;28708;52.224;6.924;2023-02-22T05:09:47;141.67;;;48.73;;
43086;SDS011;28708;52.224;6.924;2023-02-22T05:12:13;150.67;;;50.33;;
43086;SDS011;28708;52.224;6.924;2023-02-22T05:14:39;155.60;;;53.60;;
43086;SDS011;28708;52.224;6.924;2023-02-22T05:17:05;159.13;;;52.27;;
43086;SDS011;28708;52.224;6.924;2023-02-22T05:19:31;157.63;;;52.27;;
43086;SDS011;28708;52.224;6.924;2023-02-22T05:21:57;157.90;;;51.93;;
43086;SDS011;28708;52.224;6.924;2023-02-22T05:24:23;148.77;;;48.50;;
43086;SDS011;28708;52.224;6.924;2023-02-22T05:26:49;160.93;;;53.37;;
43086;SDS011;28708;52.224;6.924;2023-02-22T05:29:15;169.67;;;54.37;;
43086;SDS011;28708;52.224;6.924;2023-02-22T05:31:41;158.03;;;51.77;;
43086;SDS011;28708;52.224;6.924;2023-02-22T05:34:06;169.23;;;55.13;;
43086;SDS011;28708;52.224;6.924;2023-02-22T05:36:32;186.30;;;56.67;;
43086;SDS011;28708;52.224;6.924;2023-02-22T05:38:58;177.33;;;57.93;;
43086;SDS011;28708;52.224;6.924;2023-02-22T05:41:23;176.40;;;56.27;;
43086;SDS011;28708;52.224;6.924;2023-02-22T05:43:49;204.33;;;59.33;;
43086;SDS011;28708;52.224;6.924;2023-02-22T05:46:15;188.43;;;56.30;;
43086;SDS011;28708;52.224;6.924;2023-02-22T05:48:40;215.40;;;60.40;;
43086;SDS011;28708;52.224;6.924;2023-02-22T05:51:06;203.00;;;58.63;;
43086;SDS011;28708;52.224;6.924;2023-02-22T05:53:33;199.53;;;57.90;;
43086;SDS011;28708;52.224;6.924;2023-02-22T05:55:59;212.77;;;61.97;;
43086;SDS011;28708;52.224;6.924;2023-02-22T05:58:25;207.53;;;58.10;;
43086;SDS011;28708;52.224;6.924;2023-02-22T06:00:51;204.80;;;58.23;;
43086;SDS011;28708;52.224;6.924;2023-02-22T06:03:17;206.70;;;58.50;;
43086;SDS011;28708;52.224;6.924;2023-02-22T06:05:43;226.30;;;61.17;;
43086;SDS011;28708;52.224;6.924;2023-02-22T06:08:08;236.07;;;66.53;;
43086;SDS011;28708;52.224;6.924;2023-02-22T06:10:34;241.27;;;62.50;;
43086;SDS011;28708;52.224;6.924;2023-02-22T06:13:00;254.17;;;64.20;;
43086;SDS011;28708;52.224;6.924;2023-02-22T06:15:28;264.53;;;64.00;;
43086;SDS011;28708;52.224;6.924;2023-02-22T06:17:54;238.67;;;64.53;;
43086;SDS011;28708;52.224;6.924;2023-02-22T06:20:21;286.60;;;67.73;;
43086;SDS011;28708;52.224;6.924;2023-02-22T06:22:48;263.47;;;64.07;;
43086;SDS011;28708;52.224;6.924;2023-02-22T06:25:17;320.70;;;67.10;;
43086;SDS011;28708;52.224;6.924;2023-02-22T06:27:44;246.65;;;63.85;;
43086;SDS011;28708;52.224;6.924;2023-02-22T06:30:11;224.80;;;61.17;;
43086;SDS011;28708;52.224;6.924;2023-02-22T06:32:37;223.53;;;62.07;;
43086;SDS011;28708;52.224;6.924;2023-02-22T06:35:03;234.80;;;64.80;;
43086;SDS011;28708;52.224;6.924;2023-02-22T06:37:29;234.73;;;64.60;;
43086;SDS011;28708;52.224;6.924;2023-02-22T06:39:54;249.37;;;60.87;;
43086;SDS011;28708;52.224;6.924;2023-02-22T06:42:20;251.37;;;59.00;;
43086;SDS011;28708;52.224;6.924;2023-02-22T06:44:46;261.77;;;60.00;;
43086;SDS011;28708;52.224;6.924;2023-02-22T06:47:11;227.70;;;59.47;;
43086;SDS011;28708;52.224;6.924;2023-02-22T06:49:37;228.10;;;57.43;;
43086;SDS011;28708;52.224;6.924;2023-02-22T06:52:03;356.60;;;59.20;;
43086;SDS011;28708;52.224;6.924;2023-02-22T06:54:29;206.97;;;54.87;;
43086;SDS011;28708;52.224;6.924;2023-02-22T06:56:55;321.03;;;60.47;;
43086;SDS011;28708;52.224;6.924;2023-02-22T06:59:21;227.23;;;58.63;;
43086;SDS011;28708;52.224;6.924;2023-02-22T07:01:47;213.00;;;55.53;;
43086;SDS011;28708;52.224;6.924;2023-02-22T07:04:13;210.40;;;53.50;;
43086;SDS011;28708;52.224;6.924;2023-02-22T07:06:43;218.67;;;56.87;;
43086;SDS011;28708;52.224;6.924;2023-02-22T07:09:11;237.27;;;54.53;;
43086;SDS011;28708;52.224;6.924;2023-02-22T07:11:38;247.60;;;57.67;;
43086;SDS011;28708;52.224;6.924;2023-02-22T07:14:03;276.57;;;57.20;;
43086;SDS011;28708;52.224;6.924;2023-02-22T07:16:29;288.30;;;55.90;;
43086;SDS011;28708;52.224;6.924;2023-02-22T07:18:55;210.20;;;53.00;;
43086;SDS011;28708;52.224;6.924;2023-02-22T07:21:20;268.90;;;56.60;;
43086;SDS011;28708;52.224;6.924;2023-02-22T07:23:50;241.30;;;54.70;;
43086;SDS011;28708;52.224;6.924;2023-02-22T07:26:17;238.97;;;54.33;;
43086;SDS011;28708;52.224;6.924;2023-02-22T07:28:43;244.00;;;56.17;;
43086;SDS011;28708;52.224;6.924;2023-02-22T07:31:09;242.43;;;56.80;;
43086;SDS011;28708;52.224;6.924;2023-02-22T07:33:34;253.20;;;55.70;;
43086;SDS011;28708;52.224;6.924;2023-02-22T07:36:00;189.73;;;52.20;;
43086;SDS011;28708;52.224;6.924;2023-02-22T07:38:25;239.53;;;55.63;;
43086;SDS011;28708;52.224;6.924;2023-02-22T07:40:52;206.50;;;56.37;;
43086;SDS011;28708;52.224;6.924;2023-02-22T07:43:25;217.67;;;54.90;;
43086;SDS011;28708;52.224;6.924;2023-02-22T07:45:53;265.73;;;59.87;;
43086;SDS011;28708;52.224;6.924;2023-02-22T07:48:22;209.73;;;54.70;;
43086;SDS011;28708;52.224;6.924;2023-02-22T07:50:50;214.40;;;54.60;;
43086;SDS011;28708;52.224;6.924;2023-02-22T07:53:19;189.13;;;53.37;;
43086;SDS011;28708;52.224;6.924;2023-02-22T07:55:46;230.97;;;54.43;;
43086;SDS011;28708;52.224;6.924;2023-02-22T07:58:15;198.20;;;53.27;;
43086;SDS011;28708;52.224;6.924;2023-02-22T08:00:43;194.20;;;54.07;;
43086;SDS011;28708;52.224;6.924;2023-02-22T08:03:12;167.30;;;50.83;;
43086;SDS011;28708;52.224;6.924;2023-02-22T08:05:39;182.97;;;51.27;;
43086;SDS011;28708;52.224;6.924;2023-02-22T08:08:06;189.77;;;54.47;;
43086;SDS011;28708;52.224;6.924;2023-02-22T08:10:32;171.23;;;50.27;;
43086;SDS011;28708;52.224;6.924;2023-02-22T08:12:59;185.03;;;52.63;;
43086;SDS011;28708;52.224;6.924;2023-02-22T08:15:35;191.20;;;51.70;;
43086;SDS011;28708;52.224;6.924;2023-02-22T08:18:03;170.60;;;49.03;;
43086;SDS011;28708;52.224;6.924;2023-02-22T08:20:33;176.67;;;51.67;;
43086;SDS011;28708;52.224;6.924;2023-02-22T08:22:59;167.83;;;46.37;;
43086;SDS011;28708;52.224;6.924;2023-02-22T08:25:26;164.30;;;47.67;;
43086;SDS011;28708;52.224;6.924;2023-02-22T08:27:56;159.23;;;47.50;;
43086;SDS011;28708;52.224;6.924;2023-02-22T08:30:26;169.83;;;48.87;;
43086;SDS011;28708;52.224;6.924;2023-02-22T08:32:54;164.87;;;49.03;;
43086;SDS011;28708;52.224;6.924;2023-02-22T08:35:20;136.23;;;46.03;;
43086;SDS011;28708;52.224;6.924;2023-02-22T08:37:57;138.13;;;45.63;;
43086;SDS011;28708;52.224;6.924;2023-02-22T08:40:26;115.27;;;41.30;;
43086;SDS011;28708;52.224;6.924;2023-02-22T08:42:53;131.83;;;42.33;;
43086;SDS011;28708;52.224;6.924;2023-02-22T08:45:19;125.23;;;40.60;;
43086;SDS011;28708;52.224;6.924;2023-02-22T08:47:45;141.47;;;46.00;;
43086;SDS011;28708;52.224;6.924;2023-02-22T08:50:19;167.73;;;46.30;;
43086;SDS011;28708;52.224;6.924;2023-02-22T08:52:50;134.33;;;46.03;;
43086;SDS011;28708;52.224;6.924;2023-02-22T08:55:20;150.27;;;48.73;;
43086;SDS011;28708;52.224;6.924;2023-02-22T08:57:47;118.23;;;43.30;;
43086;SDS011;28708;52.224;6.924;2023-02-22T09:00:13;125.37;;;43.53;;
43086;SDS011;28708;52.224;6.924;2023-02-22T09:02:39;108.57;;;39.27;;
43086;SDS011;28708;52.224;6.924;2023-02-22T09:05:05;116.67;;;39.43;;
43086;SDS011;28708;52.224;6.924;2023-02-22T09:07:31;107.57;;;38.60;;
43086;SDS011;28708;52.224;6.924;2023-02-22T09:09:57;117.97;;;41.50;;
43086;SDS011;28708;52.224;6.924;2023-02-22T09:12:23;94.90;;;36.20;;
43086;SDS011;28708;52.224;6.924;2023-02-22T09:14:48;112.40;;;37.60;;
43086;SDS011;28708;52.224;6.924;2023-02-22T09:17:14;98.20;;;36.13;;
43086;SDS011;28708;52.224;6.924;2023-02-22T09:19:40;97.27;;;37.57;;
43086;SDS011;28708;52.224;6.924;2023-02-22T09:22:05;90.30;;;35.73;;
43086;SDS011;28708;52.224;6.924;2023-02-22T09:24:31;88.63;;;36.53;;
43086;SDS011;28708;52.224;6.924;2023-02-22T09:26:57;109.70;;;37.07;;
43086;SDS011;28708;52.224;6.924;2023-02-22T09:29:24;100.07;;;37.60;;
43086;SDS011;28708;52.224;6.924;2023-02-22T09:31:52;104.73;;;39.50;;
43086;SDS011;28708;52.224;6.924;2023-02-22T09:34:19;114.23;;;40.53;;
43086;SDS011;28708;52.224;6.924;2023-02-22T09:36:52;112.00;;;42.00;;
43086;SDS011;28708;52.224;6.924;2023-02-22T09:39:18;113.77;;;43.43;;
43086;SDS011;28708;52.224;6.924;2023-02-22T09:47:32;100.53;;;43.27;;
43086;SDS011;28708;52.224;6.924;2023-02-22T09:50:09;107.53;;;45.50;;
43086;SDS011;28708;52.224;6.924;2023-02-22T09:52:55;89.23;;;42.77;;
43086;SDS011;28708;52.224;6.924;2023-02-22T09:58:30;93.83;;;44.50;;
43086;SDS011;28708;52.224;6.924;2023-02-22T10:00:54;87.90;;;42.63;;
43086;SDS011;28708;52.224;6.924;2023-02-22T10:03:33;88.90;;;43.80;;
43086;SDS011;28708;52.224;6.924;2023-02-22T10:06:14;91.63;;;43.13;;
43086;SDS011;28708;52.224;6.924;2023-02-22T10:08:45;85.93;;;43.73;;
43086;SDS011;28708;52.224;6.924;2023-02-22T10:21:26;68.03;;;35.37;;
43086;SDS011;28708;52.224;6.924;2023-02-22T10:27:41;70.43;;;35.77;;
43086;SDS011;28708;52.224;6.924;2023-02-22T10:30:22;67.93;;;35.23;;
43086;SDS011;28708;52.224;6.924;2023-02-22T10:32:57;62.93;;;33.53;;
43086;SDS011;28708;52.224;6.924;2023-02-22T10:35:32;63.35;;;32.45;;
43086;SDS011;28708;52.224;6.924;2023-02-22T10:38:10;61.53;;;32.97;;
43086;SDS011;28708;52.224;6.924;2023-02-22T10:43:37;64.07;;;33.33;;
43086;SDS011;28708;52.224;6.924;2023-02-22T10:46:05;59.63;;;31.33;;
43086;SDS011;28708;52.224;6.924;2023-02-22T10:48:34;61.30;;;32.13;;
43086;SDS011;28708;52.224;6.924;2023-02-22T10:51:02;59.13;;;31.97;;
43086;SDS011;28708;52.224;6.924;2023-02-22T10:53:30;58.13;;;30.60;;
43086;SDS011;28708;52.224;6.924;2023-02-22T10:56:13;60.37;;;30.47;;
43086;SDS011;28708;52.224;6.924;2023-02-22T10:58:57;62.40;;;32.73;;
43086;SDS011;28708;52.224;6.924;2023-02-22T11:01:36;60.97;;;29.60;;
43086;SDS011;28708;52.224;6.924;2023-02-22T11:04:18;56.87;;;30.97;;
43086;SDS011;28708;52.224;6.924;2023-02-22T11:06:49;63.70;;;30.30;;
43086;SDS011;28708;52.224;6.924;2023-02-22T11:09:46;55.83;;;29.77;;
43086;SDS011;28708;52.224;6.924;2023-02-22T11:12:19;56.10;;;30.63;;
43086;SDS011;28708;52.224;6.924;2023-02-22T11:14:50;58.77;;;29.37;;
43086;SDS011;28708;52.224;6.924;2023-02-22T11:17:17;56.93;;;30.63;;
43086;SDS011;28708;52.224;6.924;2023-02-22T11:19:51;56.20;;;30.07;;
43086;SDS011;28708;52.224;6.924;2023-02-22T11:22:19;56.27;;;30.53;;
43086;SDS011;28708;52.224;6.924;2023-02-22T11:25:17;54.43;;;29.07;;
43086;SDS011;28708;52.224;6.924;2023-02-22T11:27:46;55.47;;;29.57;;
43086;SDS011;28708;52.224;6.924;2023-02-22T11:32:58;53.97;;;29.40;;
43086;SDS011;28708;52.224;6.924;2023-02-22T11:35:48;50.73;;;29.10;;
43086;SDS011;28708;52.224;6.924;2023-02-22T11:43:52;53.77;;;27.63;;
43086;SDS011;28708;52.224;6.924;2023-02-22T11:46:33;50.43;;;27.23;;
43086;SDS011;28708;52.224;6.924;2023-02-22T11:49:01;52.20;;;27.50;;
43086;SDS011;28708;52.224;6.924;2023-02-22T12:11:27;50.83;;;28.73;;
43086;SDS011;28708;52.224;6.924;2023-02-22T12:13:59;49.20;;;27.67;;
43086;SDS011;28708;52.224;6.924;2023-02-22T12:16:59;48.87;;;26.80;;
43086;SDS011;28708;52.224;6.924;2023-02-22T12:25:02;49.97;;;27.27;;
43086;SDS011;28708;52.224;6.924;2023-02-22T12:27:56;54.27;;;30.37;;
43086;SDS011;28708;52.224;6.924;2023-02-22T12:30:28;51.87;;;27.67;;
43086;SDS011;28708;52.224;6.924;2023-02-22T12:32:59;50.30;;;27.70;;
43086;SDS011;28708;52.224;6.924;2023-02-22T12:35:38;54.00;;;29.17;;
43086;SDS011;28708;52.224;6.924;2023-02-22T12:38:21;58.30;;;31.50;;
43086;SDS011;28708;52.224;6.924;2023-02-22T12:44:05;50.08;;;29.42;;
43086;SDS011;28708;52.224;6.924;2023-02-22T12:46:39;50.37;;;28.53;;
43086;SDS011;28708;52.224;6.924;2023-02-22T12:54:42;54.40;;;29.95;;
43086;SDS011;28708;52.224;6.924;2023-02-22T13:00:09;53.97;;;29.93;;
43086;SDS011;28708;52.224;6.924;2023-02-22T13:05:45;50.10;;;27.83;;
43086;SDS011;28708;52.224;6.924;2023-02-22T13:08:22;47.77;;;27.93;;
43086;SDS011;28708;52.224;6.924;2023-02-22T13:16:27;41.17;;;25.33;;
43086;SDS011;28708;52.224;6.924;2023-02-22T13:19:03;48.80;;;26.60;;
43086;SDS011;28708;52.224;6.924;2023-02-22T13:21:57;44.63;;;25.90;;
43086;SDS011;28708;52.224;6.924;2023-02-22T13:27:25;44.67;;;25.13;;
43086;SDS011;28708;52.224;6.924;2023-02-22T13:29:57;42.03;;;24.20;;
43086;SDS011;28708;52.224;6.924;2023-02-22T13:40:45;40.43;;;24.37;;
43086;SDS011;28708;52.224;6.924;2023-02-22T13:43:46;41.87;;;25.13;;
43086;SDS011;28708;52.224;6.924;2023-02-22T13:46:43;41.70;;;24.10;;
43086;SDS011;28708;52.224;6.924;2023-02-22T13:49:52;43.97;;;25.07;;
43086;SDS011;28708;52.224;6.924;2023-02-22T13:52:24;38.70;;;23.90;;
43086;SDS011;28708;52.224;6.924;2023-02-22T13:54:54;36.77;;;22.13;;
43086;SDS011;28708;52.224;6.924;2023-02-22T13:57:38;43.33;;;25.07;;
43086;SDS011;28708;52.224;6.924;2023-02-22T14:02:59;42.77;;;24.60;;
43086;SDS011;28708;52.224;6.924;2023-02-22T14:10:48;39.57;;;22.67;;
43086;SDS011;28708;52.224;6.924;2023-02-22T14:13:19;42.37;;;23.47;;
43086;SDS011;28708;52.224;6.924;2023-02-22T14:18:25;38.90;;;23.27;;
43086;SDS011;28708;52.224;6.924;2023-02-22T14:26:10;40.45;;;24.08;;
43086;SDS011;28708;52.224;6.924;2023-02-22T14:28:42;43.47;;;24.07;;
43086;SDS011;28708;52.224;6.924;2023-02-22T14:31:15;45.07;;;26.20;;
43086;SDS011;28708;52.224;6.924;2023-02-22T14:33:50;42.60;;;23.47;;
43086;SDS011;28708;52.224;6.924;2023-02-22T14:36:22;39.07;;;21.67;;
43086;SDS011;28708;52.224;6.924;2023-02-22T14:39:41;41.40;;;23.93;;
43086;SDS011;28708;52.224;6.924;2023-02-22T14:41:50;38.73;;;23.20;;
43086;SDS011;28708;52.224;6.924;2023-02-22T14:44:23;41.90;;;23.07;;
43086;SDS011;28708;52.224;6.924;2023-02-22T14:46:52;38.37;;;22.13;;
43086;SDS011;28708;52.224;6.924;2023-02-22T14:49:23;42.10;;;23.80;;
43086;SDS011;28708;52.224;6.924;2023-02-22T14:51:56;42.30;;;24.17;;
43086;SDS011;28708;52.224;6.924;2023-02-22T14:54:34;41.97;;;24.60;;
43086;SDS011;28708;52.224;6.924;2023-02-22T14:57:11;39.43;;;23.03;;
43086;SDS011;28708;52.224;6.924;2023-02-22T15:02:47;40.97;;;24.70;;
43086;SDS011;28708;52.224;6.924;2023-02-22T15:05:17;37.83;;;22.88;;
43086;SDS011;28708;52.224;6.924;2023-02-22T15:07:50;40.63;;;23.90;;
43086;SDS011;28708;52.224;6.924;2023-02-22T15:10:21;39.70;;;23.87;;
43086;SDS011;28708;52.224;6.924;2023-02-22T15:13:02;38.37;;;23.20;;
43086;SDS011;28708;52.224;6.924;2023-02-22T15:15:37;38.87;;;24.03;;
43086;SDS011;28708;52.224;6.924;2023-02-22T15:23:16;42.60;;;23.90;;
43086;SDS011;28708;52.224;6.924;2023-02-22T15:25:45;38.17;;;22.50;;
43086;SDS011;28708;52.224;6.924;2023-02-22T15:28:13;37.70;;;22.63;;
43086;SDS011;28708;52.224;6.924;2023-02-22T15:30:40;38.73;;;23.07;;
43086;SDS011;28708;52.224;6.924;2023-02-22T15:33:14;42.10;;;23.47;;
43086;SDS011;28708;52.224;6.924;2023-02-22T15:35:42;42.17;;;22.70;;
43086;SDS011;28708;52.224;6.924;2023-02-22T15:40:37;38.13;;;23.00;;
43086;SDS011;28708;52.224;6.924;2023-02-22T15:43:20;36.15;;;22.42;;
43086;SDS011;28708;52.224;6.924;2023-02-22T15:45:48;36.43;;;21.27;;
43086;SDS011;28708;52.224;6.924;2023-02-22T15:48:17;37.47;;;22.58;;
43086;SDS011;28708;52.224;6.924;2023-02-22T15:53:38;44.13;;;23.43;;
43086;SDS011;28708;52.224;6.924;2023-02-22T15:56:05;39.87;;;24.10;;
43086;SDS011;28708;52.224;6.924;2023-02-22T15:58:35;41.80;;;24.93;;
43086;SDS011;28708;52.224;6.924;2023-02-22T16:01:06;39.03;;;23.40;;
43086;SDS011;28708;52.224;6.924;2023-02-22T16:03:41;42.50;;;24.10;;
43086;SDS011;28708;52.224;6.924;2023-02-22T16:06:23;41.67;;;23.97;;
43086;SDS011;28708;52.224;6.924;2023-02-22T16:09:09;42.87;;;24.53;;
43086;SDS011;28708;52.224;6.924;2023-02-22T16:11:43;46.10;;;27.83;;
43086;SDS011;28708;52.224;6.924;2023-02-22T16:14:27;44.43;;;25.50;;
43086;SDS011;28708;52.224;6.924;2023-02-22T16:19:50;48.67;;;28.67;;
43086;SDS011;28708;52.224;6.924;2023-02-22T16:27:45;38.67;;;23.00;;
43086;SDS011;28708;52.224;6.924;2023-02-22T16:32:42;41.47;;;23.70;;
43086;SDS011;28708;52.224;6.924;2023-02-22T16:35:09;42.40;;;25.17;;
43086;SDS011;28708;52.224;6.924;2023-02-22T16:42:47;45.77;;;26.23;;
43086;SDS011;28708;52.224;6.924;2023-02-22T16:45:16;41.97;;;24.60;;
43086;SDS011;28708;52.224;6.924;2023-02-22T16:47:43;38.53;;;23.63;;
43086;SDS011;28708;52.224;6.924;2023-02-22T16:50:09;41.07;;;24.20;;
43086;SDS011;28708;52.224;6.924;2023-02-22T16:52:37;40.23;;;22.97;;
43086;SDS011;28708;52.224;6.924;2023-02-22T16:55:04;42.10;;;24.97;;
43086;SDS011;28708;52.224;6.924;2023-02-22T16:57:33;39.88;;;23.77;;
43086;SDS011;28708;52.224;6.924;2023-02-22T16:59:59;41.83;;;25.33;;
43086;SDS011;28708;52.224;6.924;2023-02-22T17:02:25;44.80;;;25.43;;
43086;SDS011;28708;52.224;6.924;2023-02-22T17:04:51;43.73;;;24.07;;
43086;SDS011;28708;52.224;6.924;2023-02-22T17:07:18;43.37;;;24.37;;
43086;SDS011;28708;52.224;6.924;2023-02-22T17:09:48;39.63;;;24.23;;
43086;SDS011;28708;52.224;6.924;2023-02-22T17:12:15;46.03;;;25.87;;
43086;SDS011;28708;52.224;6.924;2023-02-22T17:14:43;45.33;;;26.17;;
43086;SDS011;28708;52.224;6.924;2023-02-22T17:17:10;42.13;;;25.70;;